METAR AND TAF INFORMATION
METAR FOR LOWW
ADDS - METARS form results

(1159 UTC 15 April 2021)
Data provider http://aviationweather.gov/metar/data/
 
METAR text: LOWW 151150Z 33013KT 9999 FEW038 07/M06 Q1022 NOSIG
Conditions at: LOWW (VIENNA/SCHWECHAT, AT) observed 1150 UTC 15 April 2021
Temperature: 7.0°C (45°F)
Dewpoint: -6.0°C (21°F) [RH = 39%]
Pressure (altimeter): 30.18 inches Hg (1022.0 mb)
Winds: from the NNW (330 degrees) at 15 MPH (13 knots; 6.7 m/s)
Visibility: 6 or more miles (10+ km)
Ceiling: at least 12,000 feet AGL
Clouds: few clouds at 3800 feet AGL
Weather: no significant weather observed at this time

METAR text: LOWW 151120Z 33012KT 9999 FEW038 SCT050 07/M05 Q1022 NOSIG
Conditions at: LOWW (VIENNA/SCHWECHAT, AT) observed 1120 UTC 15 April 2021
Temperature: 7.0°C (45°F)
Dewpoint: -5.0°C (23°F) [RH = 42%]
Pressure (altimeter): 30.18 inches Hg (1022.0 mb)
Winds: from the NNW (330 degrees) at 14 MPH (12 knots; 6.2 m/s)
Visibility: 6 or more miles (10+ km)
Ceiling: at least 12,000 feet AGL
Clouds: few clouds at 3800 feet AGL
scattered clouds at 5000 feet AGL
Weather: no significant weather observed at this time

Forecast for: LOWW (VIENNA/SCHWECHAT, AT)
Text: TAF LOWW 151115Z 1512/1618 32015KT 9999 BKN050 TX07/1513Z TN03/1602Z
Forecast period: 1200 UTC 15 April 2021 to 1800 UTC 16 April 2021
Forecast type: FROM: standard forecast or significant change
Winds: from the NW (320 degrees) at 17 MPH (15 knots; 7.7 m/s)
Visibility: 6 or more miles (10+ km)
Ceiling: 5000 feet AGL
Clouds: broken clouds at 5000 feet AGL
Weather: no significant weather forecast for this period

 AIRPORT MAP

 RUNWAY INFORMATION
Runway 11 Runway length 11483 ft Runway width 148 ft
Runway elevation 575 ft Runway displaced threshold 0 ft Runway heading 116
Runway 29 Runway length 11483 ft Runway width 148 ft
Runway elevation 600 ft Runway displaced threshold 0 ft Runway heading 296
Runway 16 Runway length 11811 ft Runway width 148 ft
Runway elevation 597 ft Runway displaced threshold 2953 ft Runway heading 164
Runway 34 Runway length 11811 ft Runway width 148 ft
Runway elevation 586 ft Runway displaced threshold 0 ft Runway heading 344

 AIRPORT FREQUENCIES
Type APP Name WIEN RADAR Frequency 128.2 MHZ
Type ATIS Name ATIS Frequency 121.725 MHZ
Type CLD Name WIEN CLNC Frequency 122.125 MHZ
Type DIR Name DIRECTOR Frequency 119.8 MHZ
Type GND Name WIEN GND Frequency 121.6 MHZ
Type INFO Name INFO Frequency 118.525 MHZ
Type RMP Name VIENNA ICE Frequency 131.625 MHZ
Type TWR Name WIEN TWR Frequency 119.4 MHZ

 AIRPORT NEAR NAVIGATION AIDS
Type NDB Name Bruck Frequency 408 KHZ
Type VOR-DME Name Fischamend Frequency 110400 KHZ
Type VOR-DME Name Sollenau Frequency 115500 KHZ
Type NDB Name Steinhof Frequency 293 KHZ
Type VOR-DME Name Wagram Frequency 112200 KHZ
Type NDB Name Schwechat Frequency 303 KHZ



Datenschutz / Privacy Policy • Impressum / Imprint • Disclaimer


Powered by Virtual Airlines Manager [v2.6.2]

Logo VAM